sensor_id;sensor_type;location;lat;lon;timestamp;temperature;humidity
6210;DHT22;3138;52.550;13.148;2023-08-24T00:00:16;14.60;99.90
6210;DHT22;3138;52.550;13.148;2023-08-24T00:02:45;14.60;99.90
6210;DHT22;3138;52.550;13.148;2023-08-24T00:05:12;14.60;99.90
6210;DHT22;3138;52.550;13.148;2023-08-24T00:07:39;14.50;99.90
6210;DHT22;3138;52.550;13.148;2023-08-24T00:10:06;14.50;99.90
6210;DHT22;3138;52.550;13.148;2023-08-24T00:12:33;14.50;99.90
6210;DHT22;3138;52.550;13.148;2023-08-24T00:15:01;14.50;99.90
6210;DHT22;3138;52.550;13.148;2023-08-24T00:17:29;14.40;99.90
6210;DHT22;3138;52.550;13.148;2023-08-24T00:19:57;14.40;99.90
6210;DHT22;3138;52.550;13.148;2023-08-24T00:22:24;14.40;99.90
6210;DHT22;3138;52.550;13.148;2023-08-24T00:24:51;14.30;99.90
6210;DHT22;3138;52.550;13.148;2023-08-24T00:27:18;14.30;99.90
6210;DHT22;3138;52.550;13.148;2023-08-24T00:29:45;14.40;99.90
6210;DHT22;3138;52.550;13.148;2023-08-24T00:32:12;14.30;99.90
6210;DHT22;3138;52.550;13.148;2023-08-24T00:34:39;14.30;99.90
6210;DHT22;3138;52.550;13.148;2023-08-24T00:37:07;14.30;99.90
6210;DHT22;3138;52.550;13.148;2023-08-24T00:39:33;14.40;99.90
6210;DHT22;3138;52.550;13.148;2023-08-24T00:42:00;14.30;99.90
6210;DHT22;3138;52.550;13.148;2023-08-24T00:44:27;14.30;99.90
6210;DHT22;3138;52.550;13.148;2023-08-24T00:46:54;14.20;99.90
6210;DHT22;3138;52.550;13.148;2023-08-24T00:49:21;14.20;99.90
6210;DHT22;3138;52.550;13.148;2023-08-24T00:51:49;14.20;99.90
6210;DHT22;3138;52.550;13.148;2023-08-24T00:54:18;14.20;99.90
6210;DHT22;3138;52.550;13.148;2023-08-24T00:56:45;14.10;99.90
6210;DHT22;3138;52.550;13.148;2023-08-24T00:59:12;14.20;99.90
6210;DHT22;3138;52.550;13.148;2023-08-24T01:01:41;14.20;99.90
6210;DHT22;3138;52.550;13.148;2023-08-24T01:04:08;14.30;99.90
6210;DHT22;3138;52.550;13.148;2023-08-24T01:06:36;14.30;99.90
6210;DHT22;3138;52.550;13.148;2023-08-24T01:09:03;14.40;99.90
6210;DHT22;3138;52.550;13.148;2023-08-24T01:11:43;14.50;99.90
6210;DHT22;3138;52.550;13.148;2023-08-24T01:14:21;14.50;99.90
6210;DHT22;3138;52.550;13.148;2023-08-24T01:16:50;14.60;99.90
6210;DHT22;3138;52.550;13.148;2023-08-24T01:19:30;14.70;99.90
6210;DHT22;3138;52.550;13.148;2023-08-24T01:22:02;14.80;99.90
6210;DHT22;3138;52.550;13.148;2023-08-24T01:24:39;14.80;99.90
6210;DHT22;3138;52.550;13.148;2023-08-24T01:27:10;14.90;99.90
6210;DHT22;3138;52.550;13.148;2023-08-24T01:29:38;15.10;99.90
6210;DHT22;3138;52.550;13.148;2023-08-24T01:32:09;15.10;99.90
6210;DHT22;3138;52.550;13.148;2023-08-24T01:34:37;15.10;99.90
6210;DHT22;3138;52.550;13.148;2023-08-24T01:37:04;15.00;99.90
6210;DHT22;3138;52.550;13.148;2023-08-24T01:39:38;15.00;99.90
6210;DHT22;3138;52.550;13.148;2023-08-24T01:42:13;15.00;99.90
6210;DHT22;3138;52.550;13.148;2023-08-24T01:44:42;15.00;99.90
6210;DHT22;3138;52.550;13.148;2023-08-24T01:47:13;15.10;99.90
6210;DHT22;3138;52.550;13.148;2023-08-24T01:49:40;15.10;99.90
6210;DHT22;3138;52.550;13.148;2023-08-24T01:52:09;15.10;99.90
6210;DHT22;3138;52.550;13.148;2023-08-24T01:54:36;15.10;99.90
6210;DHT22;3138;52.550;13.148;2023-08-24T01:57:04;15.10;99.90
6210;DHT22;3138;52.550;13.148;2023-08-24T01:59:32;15.10;99.90
6210;DHT22;3138;52.550;13.148;2023-08-24T02:01:59;15.20;99.90
6210;DHT22;3138;52.550;13.148;2023-08-24T02:04:26;15.30;99.90
6210;DHT22;3138;52.550;13.148;2023-08-24T02:06:53;15.30;99.90
6210;DHT22;3138;52.550;13.148;2023-08-24T02:09:20;15.30;99.90
6210;DHT22;3138;52.550;13.148;2023-08-24T02:11:47;15.40;99.90
6210;DHT22;3138;52.550;13.148;2023-08-24T02:14:13;15.50;99.90
6210;DHT22;3138;52.550;13.148;2023-08-24T02:16:41;15.60;99.90
6210;DHT22;3138;52.550;13.148;2023-08-24T02:19:08;15.60;99.90
6210;DHT22;3138;52.550;13.148;2023-08-24T02:21:35;15.60;99.90
6210;DHT22;3138;52.550;13.148;2023-08-24T02:24:03;15.70;99.90
6210;DHT22;3138;52.550;13.148;2023-08-24T02:26:30;15.70;99.90
6210;DHT22;3138;52.550;13.148;2023-08-24T02:28:57;15.70;99.90
6210;DHT22;3138;52.550;13.148;2023-08-24T02:31:24;15.80;99.90
6210;DHT22;3138;52.550;13.148;2023-08-24T02:33:52;15.80;99.90
6210;DHT22;3138;52.550;13.148;2023-08-24T02:36:19;15.80;99.90
6210;DHT22;3138;52.550;13.148;2023-08-24T02:38:47;15.80;99.90
6210;DHT22;3138;52.550;13.148;2023-08-24T02:41:13;15.90;99.90
6210;DHT22;3138;52.550;13.148;2023-08-24T02:43:40;15.90;99.90
6210;DHT22;3138;52.550;13.148;2023-08-24T02:46:08;15.90;99.90
6210;DHT22;3138;52.550;13.148;2023-08-24T02:48:35;16.00;99.90
6210;DHT22;3138;52.550;13.148;2023-08-24T02:51:04;16.00;99.90
6210;DHT22;3138;52.550;13.148;2023-08-24T02:53:31;16.10;99.90
6210;DHT22;3138;52.550;13.148;2023-08-24T02:55:58;16.10;99.90
6210;DHT22;3138;52.550;13.148;2023-08-24T02:58:25;16.10;99.90
6210;DHT22;3138;52.550;13.148;2023-08-24T03:00:52;16.10;99.90
6210;DHT22;3138;52.550;13.148;2023-08-24T03:03:19;16.10;99.90
6210;DHT22;3138;52.550;13.148;2023-08-24T03:05:56;16.10;99.90
6210;DHT22;3138;52.550;13.148;2023-08-24T03:08:25;16.20;99.90
6210;DHT22;3138;52.550;13.148;2023-08-24T03:10:52;16.30;99.90
6210;DHT22;3138;52.550;13.148;2023-08-24T03:13:19;16.40;99.90
6210;DHT22;3138;52.550;13.148;2023-08-24T03:15:46;16.30;99.90
6210;DHT22;3138;52.550;13.148;2023-08-24T03:18:14;16.40;99.90
6210;DHT22;3138;52.550;13.148;2023-08-24T03:20:41;16.40;99.90
6210;DHT22;3138;52.550;13.148;2023-08-24T03:23:09;16.40;99.90
6210;DHT22;3138;52.550;13.148;2023-08-24T03:25:38;16.40;99.90
6210;DHT22;3138;52.550;13.148;2023-08-24T03:28:06;16.40;99.90
6210;DHT22;3138;52.550;13.148;2023-08-24T03:30:35;16.40;99.90
6210;DHT22;3138;52.550;13.148;2023-08-24T03:33:02;16.40;99.90
6210;DHT22;3138;52.550;13.148;2023-08-24T03:35:30;16.50;99.90
6210;DHT22;3138;52.550;13.148;2023-08-24T03:37:57;16.50;99.90
6210;DHT22;3138;52.550;13.148;2023-08-24T03:40:24;16.40;99.90
6210;DHT22;3138;52.550;13.148;2023-08-24T03:42:52;16.40;99.90
6210;DHT22;3138;52.550;13.148;2023-08-24T03:45:19;16.50;99.90
6210;DHT22;3138;52.550;13.148;2023-08-24T03:47:46;16.50;99.90
6210;DHT22;3138;52.550;13.148;2023-08-24T03:50:13;16.50;99.90
6210;DHT22;3138;52.550;13.148;2023-08-24T03:52:40;16.50;99.90
6210;DHT22;3138;52.550;13.148;2023-08-24T03:55:07;16.50;99.90
6210;DHT22;3138;52.550;13.148;2023-08-24T03:57:35;16.50;99.90
6210;DHT22;3138;52.550;13.148;2023-08-24T04:00:05;16.60;99.90
6210;DHT22;3138;52.550;13.148;2023-08-24T04:02:36;16.60;99.90
6210;DHT22;3138;52.550;13.148;2023-08-24T04:05:04;16.60;99.90
6210;DHT22;3138;52.550;13.148;2023-08-24T04:07:30;16.60;99.90
6210;DHT22;3138;52.550;13.148;2023-08-24T04:09:58;16.70;99.90
6210;DHT22;3138;52.550;13.148;2023-08-24T04:12:25;16.70;99.90
6210;DHT22;3138;52.550;13.148;2023-08-24T04:14:52;16.70;99.90
6210;DHT22;3138;52.550;13.148;2023-08-24T04:17:20;16.70;99.90
6210;DHT22;3138;52.550;13.148;2023-08-24T04:19:47;16.70;99.90
6210;DHT22;3138;52.550;13.148;2023-08-24T04:22:14;16.70;99.90
6210;DHT22;3138;52.550;13.148;2023-08-24T04:24:41;16.80;99.90
6210;DHT22;3138;52.550;13.148;2023-08-24T04:27:07;16.80;99.90
6210;DHT22;3138;52.550;13.148;2023-08-24T04:29:34;16.70;99.90
6210;DHT22;3138;52.550;13.148;2023-08-24T04:32:01;16.80;99.90
6210;DHT22;3138;52.550;13.148;2023-08-24T04:34:29;16.80;99.90
6210;DHT22;3138;52.550;13.148;2023-08-24T04:36:56;16.90;99.90
6210;DHT22;3138;52.550;13.148;2023-08-24T04:39:23;16.80;99.90
6210;DHT22;3138;52.550;13.148;2023-08-24T04:41:50;16.90;99.90
6210;DHT22;3138;52.550;13.148;2023-08-24T04:44:17;16.90;99.90
6210;DHT22;3138;52.550;13.148;2023-08-24T04:46:44;16.90;99.90
6210;DHT22;3138;52.550;13.148;2023-08-24T04:49:11;17.00;99.90
6210;DHT22;3138;52.550;13.148;2023-08-24T04:51:39;17.00;99.90
6210;DHT22;3138;52.550;13.148;2023-08-24T04:54:06;17.10;99.90
6210;DHT22;3138;52.550;13.148;2023-08-24T04:56:33;17.20;99.90
6210;DHT22;3138;52.550;13.148;2023-08-24T04:59:00;17.30;99.90
6210;DHT22;3138;52.550;13.148;2023-08-24T05:01:28;17.40;99.90
6210;DHT22;3138;52.550;13.148;2023-08-24T05:03:57;17.50;99.90
6210;DHT22;3138;52.550;13.148;2023-08-24T05:06:24;17.50;99.90
6210;DHT22;3138;52.550;13.148;2023-08-24T05:08:52;17.60;99.90
6210;DHT22;3138;52.550;13.148;2023-08-24T05:11:20;17.70;99.90
6210;DHT22;3138;52.550;13.148;2023-08-24T05:13:47;17.70;99.90
6210;DHT22;3138;52.550;13.148;2023-08-24T05:16:14;17.80;99.90
6210;DHT22;3138;52.550;13.148;2023-08-24T05:18:40;18.00;99.90
6210;DHT22;3138;52.550;13.148;2023-08-24T05:21:07;18.00;99.90
6210;DHT22;3138;52.550;13.148;2023-08-24T05:23:35;18.10;99.90
6210;DHT22;3138;52.550;13.148;2023-08-24T05:26:03;18.20;99.90
6210;DHT22;3138;52.550;13.148;2023-08-24T05:28:31;18.40;99.90
6210;DHT22;3138;52.550;13.148;2023-08-24T05:30:58;18.50;99.90
6210;DHT22;3138;52.550;13.148;2023-08-24T05:33:26;18.70;99.90
6210;DHT22;3138;52.550;13.148;2023-08-24T05:35:53;18.80;99.90
6210;DHT22;3138;52.550;13.148;2023-08-24T05:38:20;19.00;99.90
6210;DHT22;3138;52.550;13.148;2023-08-24T05:40:47;19.20;99.90
6210;DHT22;3138;52.550;13.148;2023-08-24T05:43:16;19.30;99.90
6210;DHT22;3138;52.550;13.148;2023-08-24T05:45:43;19.40;99.90
6210;DHT22;3138;52.550;13.148;2023-08-24T05:48:10;19.40;99.90
6210;DHT22;3138;52.550;13.148;2023-08-24T05:50:42;19.60;99.90
6210;DHT22;3138;52.550;13.148;2023-08-24T05:53:08;19.70;99.90
6210;DHT22;3138;52.550;13.148;2023-08-24T05:55:35;19.80;99.90
6210;DHT22;3138;52.550;13.148;2023-08-24T05:58:02;19.90;99.90
6210;DHT22;3138;52.550;13.148;2023-08-24T06:00:31;20.20;99.90
6210;DHT22;3138;52.550;13.148;2023-08-24T06:02:58;20.40;99.90
6210;DHT22;3138;52.550;13.148;2023-08-24T06:05:25;20.60;99.90
6210;DHT22;3138;52.550;13.148;2023-08-24T06:07:52;20.60;99.90
6210;DHT22;3138;52.550;13.148;2023-08-24T06:10:20;20.80;99.90
6210;DHT22;3138;52.550;13.148;2023-08-24T06:12:47;21.00;99.90
6210;DHT22;3138;52.550;13.148;2023-08-24T06:15:13;21.20;99.90
6210;DHT22;3138;52.550;13.148;2023-08-24T06:17:42;21.00;99.90
6210;DHT22;3138;52.550;13.148;2023-08-24T06:20:10;21.00;99.90
6210;DHT22;3138;52.550;13.148;2023-08-24T06:22:38;21.10;99.90
6210;DHT22;3138;52.550;13.148;2023-08-24T06:25:05;21.60;99.90
6210;DHT22;3138;52.550;13.148;2023-08-24T06:27:34;21.60;99.90
6210;DHT22;3138;52.550;13.148;2023-08-24T06:30:01;21.70;99.90
6210;DHT22;3138;52.550;13.148;2023-08-24T06:32:29;21.60;99.90
6210;DHT22;3138;52.550;13.148;2023-08-24T06:34:57;21.60;99.90
6210;DHT22;3138;52.550;13.148;2023-08-24T06:37:25;21.70;99.90
6210;DHT22;3138;52.550;13.148;2023-08-24T06:39:52;21.80;99.90
6210;DHT22;3138;52.550;13.148;2023-08-24T06:42:18;21.80;99.90
6210;DHT22;3138;52.550;13.148;2023-08-24T06:44:45;22.10;99.90
6210;DHT22;3138;52.550;13.148;2023-08-24T06:47:15;22.60;99.90
6210;DHT22;3138;52.550;13.148;2023-08-24T06:49:42;22.30;99.90
6210;DHT22;3138;52.550;13.148;2023-08-24T06:52:10;22.30;99.90
6210;DHT22;3138;52.550;13.148;2023-08-24T06:54:37;22.30;99.90
6210;DHT22;3138;52.550;13.148;2023-08-24T06:57:04;22.70;99.90
6210;DHT22;3138;52.550;13.148;2023-08-24T06:59:31;22.50;99.90
6210;DHT22;3138;52.550;13.148;2023-08-24T07:01:58;22.50;99.90
6210;DHT22;3138;52.550;13.148;2023-08-24T07:04:25;22.90;99.90
6210;DHT22;3138;52.550;13.148;2023-08-24T07:06:52;22.60;99.90
6210;DHT22;3138;52.550;13.148;2023-08-24T07:09:20;22.50;99.90
6210;DHT22;3138;52.550;13.148;2023-08-24T07:11:47;22.30;99.90
6210;DHT22;3138;52.550;13.148;2023-08-24T07:14:14;22.70;99.90
6210;DHT22;3138;52.550;13.148;2023-08-24T07:16:41;22.90;99.90
6210;DHT22;3138;52.550;13.148;2023-08-24T07:19:08;23.00;99.90
6210;DHT22;3138;52.550;13.148;2023-08-24T07:21:35;23.20;99.90
6210;DHT22;3138;52.550;13.148;2023-08-24T07:24:03;23.20;99.90
6210;DHT22;3138;52.550;13.148;2023-08-24T07:26:31;23.30;99.90
6210;DHT22;3138;52.550;13.148;2023-08-24T07:28:58;23.50;99.90
6210;DHT22;3138;52.550;13.148;2023-08-24T07:31:25;23.50;99.90
6210;DHT22;3138;52.550;13.148;2023-08-24T07:33:52;23.40;99.90
6210;DHT22;3138;52.550;13.148;2023-08-24T07:36:19;23.60;99.90
6210;DHT22;3138;52.550;13.148;2023-08-24T07:38:46;23.70;99.90
6210;DHT22;3138;52.550;13.148;2023-08-24T07:41:13;23.60;99.90
6210;DHT22;3138;52.550;13.148;2023-08-24T07:43:41;24.00;99.90
6210;DHT22;3138;52.550;13.148;2023-08-24T07:46:08;24.00;99.90
6210;DHT22;3138;52.550;13.148;2023-08-24T07:48:35;24.40;99.90
6210;DHT22;3138;52.550;13.148;2023-08-24T07:51:02;24.50;99.90
6210;DHT22;3138;52.550;13.148;2023-08-24T07:53:29;25.00;99.90
6210;DHT22;3138;52.550;13.148;2023-08-24T07:55:58;24.80;99.90
6210;DHT22;3138;52.550;13.148;2023-08-24T07:58:25;25.00;99.90
6210;DHT22;3138;52.550;13.148;2023-08-24T08:00:53;24.70;99.90
6210;DHT22;3138;52.550;13.148;2023-08-24T08:03:20;24.80;99.90
6210;DHT22;3138;52.550;13.148;2023-08-24T08:05:47;24.60;99.90
6210;DHT22;3138;52.550;13.148;2023-08-24T08:08:14;24.70;99.90
6210;DHT22;3138;52.550;13.148;2023-08-24T08:10:42;24.80;99.90
6210;DHT22;3138;52.550;13.148;2023-08-24T08:13:09;25.10;99.90
6210;DHT22;3138;52.550;13.148;2023-08-24T08:15:37;25.10;99.90
6210;DHT22;3138;52.550;13.148;2023-08-24T08:18:06;25.10;99.90
6210;DHT22;3138;52.550;13.148;2023-08-24T08:20:32;24.90;99.90
6210;DHT22;3138;52.550;13.148;2023-08-24T08:22:59;24.80;99.90
6210;DHT22;3138;52.550;13.148;2023-08-24T08:25:26;24.40;99.90
6210;DHT22;3138;52.550;13.148;2023-08-24T08:27:53;24.20;99.90
6210;DHT22;3138;52.550;13.148;2023-08-24T08:30:20;24.00;99.90
6210;DHT22;3138;52.550;13.148;2023-08-24T08:32:47;23.90;99.90
6210;DHT22;3138;52.550;13.148;2023-08-24T08:35:21;23.80;99.90
6210;DHT22;3138;52.550;13.148;2023-08-24T08:37:48;23.80;99.90
6210;DHT22;3138;52.550;13.148;2023-08-24T08:40:16;23.60;99.90
6210;DHT22;3138;52.550;13.148;2023-08-24T08:42:43;23.80;99.90
6210;DHT22;3138;52.550;13.148;2023-08-24T08:45:11;23.80;99.90
6210;DHT22;3138;52.550;13.148;2023-08-24T08:47:38;24.00;99.90
6210;DHT22;3138;52.550;13.148;2023-08-24T08:50:07;23.90;99.90
6210;DHT22;3138;52.550;13.148;2023-08-24T08:52:36;24.00;99.90
6210;DHT22;3138;52.550;13.148;2023-08-24T08:55:04;23.80;99.90
6210;DHT22;3138;52.550;13.148;2023-08-24T08:57:32;23.80;99.90
6210;DHT22;3138;52.550;13.148;2023-08-24T09:00:00;24.10;99.90
6210;DHT22;3138;52.550;13.148;2023-08-24T09:02:29;24.20;99.90
6210;DHT22;3138;52.550;13.148;2023-08-24T09:04:57;24.70;99.90
6210;DHT22;3138;52.550;13.148;2023-08-24T09:07:24;24.80;99.90
6210;DHT22;3138;52.550;13.148;2023-08-24T09:09:53;24.70;99.90
6210;DHT22;3138;52.550;13.148;2023-08-24T09:12:20;24.30;99.90
6210;DHT22;3138;52.550;13.148;2023-08-24T09:14:47;24.30;99.90
6210;DHT22;3138;52.550;13.148;2023-08-24T09:17:20;24.20;99.90
6210;DHT22;3138;52.550;13.148;2023-08-24T09:19:49;24.40;99.90
6210;DHT22;3138;52.550;13.148;2023-08-24T09:22:16;24.60;99.90
6210;DHT22;3138;52.550;13.148;2023-08-24T09:24:43;24.70;99.90
6210;DHT22;3138;52.550;13.148;2023-08-24T09:27:16;25.20;99.90
6210;DHT22;3138;52.550;13.148;2023-08-24T09:29:46;25.50;99.90
6210;DHT22;3138;52.550;13.148;2023-08-24T09:32:13;25.50;99.90
6210;DHT22;3138;52.550;13.148;2023-08-24T09:34:41;25.80;99.90
6210;DHT22;3138;52.550;13.148;2023-08-24T09:37:13;25.90;99.90
6210;DHT22;3138;52.550;13.148;2023-08-24T09:39:40;25.60;99.90
6210;DHT22;3138;52.550;13.148;2023-08-24T09:42:07;26.10;99.90
6210;DHT22;3138;52.550;13.148;2023-08-24T09:44:35;26.20;99.90
6210;DHT22;3138;52.550;13.148;2023-08-24T09:47:09;26.50;99.90
6210;DHT22;3138;52.550;13.148;2023-08-24T09:49:36;26.60;99.90
6210;DHT22;3138;52.550;13.148;2023-08-24T09:52:06;26.30;99.90
6210;DHT22;3138;52.550;13.148;2023-08-24T09:54:36;26.20;99.90
6210;DHT22;3138;52.550;13.148;2023-08-24T09:57:06;26.60;99.90
6210;DHT22;3138;52.550;13.148;2023-08-24T09:59:39;27.10;99.90
6210;DHT22;3138;52.550;13.148;2023-08-24T10:02:10;27.00;99.90
6210;DHT22;3138;52.550;13.148;2023-08-24T10:04:42;26.90;99.90
6210;DHT22;3138;52.550;13.148;2023-08-24T10:07:11;27.00;99.90
6210;DHT22;3138;52.550;13.148;2023-08-24T10:09:45;26.80;99.90
6210;DHT22;3138;52.550;13.148;2023-08-24T10:12:14;26.80;99.90
6210;DHT22;3138;52.550;13.148;2023-08-24T10:14:51;26.90;99.90
6210;DHT22;3138;52.550;13.148;2023-08-24T10:17:21;26.70;99.90
6210;DHT22;3138;52.550;13.148;2023-08-24T10:19:50;27.00;99.90
6210;DHT22;3138;52.550;13.148;2023-08-24T10:22:19;26.90;99.90
6210;DHT22;3138;52.550;13.148;2023-08-24T10:24:47;27.10;99.90
6210;DHT22;3138;52.550;13.148;2023-08-24T10:27:14;27.00;99.90
6210;DHT22;3138;52.550;13.148;2023-08-24T10:29:41;26.90;99.90
6210;DHT22;3138;52.550;13.148;2023-08-24T10:32:09;27.20;99.90
6210;DHT22;3138;52.550;13.148;2023-08-24T10:34:36;27.50;99.90
6210;DHT22;3138;52.550;13.148;2023-08-24T10:37:08;27.50;99.90
6210;DHT22;3138;52.550;13.148;2023-08-24T10:39:35;27.30;99.90
6210;DHT22;3138;52.550;13.148;2023-08-24T10:42:04;27.00;99.90
6210;DHT22;3138;52.550;13.148;2023-08-24T10:44:36;27.20;99.90
6210;DHT22;3138;52.550;13.148;2023-08-24T10:47:06;27.30;99.90
6210;DHT22;3138;52.550;13.148;2023-08-24T10:49:35;27.50;99.90
6210;DHT22;3138;52.550;13.148;2023-08-24T10:52:18;27.50;99.90
6210;DHT22;3138;52.550;13.148;2023-08-24T10:54:46;27.60;99.90
6210;DHT22;3138;52.550;13.148;2023-08-24T10:57:18;27.40;99.90
6210;DHT22;3138;52.550;13.148;2023-08-24T10:59:45;27.10;99.90
6210;DHT22;3138;52.550;13.148;2023-08-24T11:02:19;26.80;99.90
6210;DHT22;3138;52.550;13.148;2023-08-24T11:05:05;26.90;99.90
6210;DHT22;3138;52.550;13.148;2023-08-24T11:07:32;27.40;99.90
6210;DHT22;3138;52.550;13.148;2023-08-24T11:09:59;27.40;99.90
6210;DHT22;3138;52.550;13.148;2023-08-24T11:12:26;27.80;99.90
6210;DHT22;3138;52.550;13.148;2023-08-24T11:14:53;27.80;99.90
6210;DHT22;3138;52.550;13.148;2023-08-24T11:17:24;27.50;99.90
6210;DHT22;3138;52.550;13.148;2023-08-24T11:19:52;27.40;99.90
6210;DHT22;3138;52.550;13.148;2023-08-24T11:22:20;27.80;99.90
6210;DHT22;3138;52.550;13.148;2023-08-24T11:24:47;27.80;99.90
6210;DHT22;3138;52.550;13.148;2023-08-24T11:27:14;27.40;99.90
6210;DHT22;3138;52.550;13.148;2023-08-24T11:29:41;27.70;99.90
6210;DHT22;3138;52.550;13.148;2023-08-24T11:32:08;27.50;99.90
6210;DHT22;3138;52.550;13.148;2023-08-24T11:34:35;27.40;99.90
6210;DHT22;3138;52.550;13.148;2023-08-24T11:37:03;27.40;99.90
6210;DHT22;3138;52.550;13.148;2023-08-24T11:39:31;27.80;99.90
6210;DHT22;3138;52.550;13.148;2023-08-24T11:42:00;28.30;99.90
6210;DHT22;3138;52.550;13.148;2023-08-24T11:44:27;28.00;99.90
6210;DHT22;3138;52.550;13.148;2023-08-24T11:46:56;28.00;99.90
6210;DHT22;3138;52.550;13.148;2023-08-24T11:49:23;27.80;99.90
6210;DHT22;3138;52.550;13.148;2023-08-24T11:51:50;28.00;99.90
6210;DHT22;3138;52.550;13.148;2023-08-24T11:54:18;27.90;99.90
6210;DHT22;3138;52.550;13.148;2023-08-24T11:56:47;27.90;99.90
6210;DHT22;3138;52.550;13.148;2023-08-24T11:59:15;27.70;99.90
6210;DHT22;3138;52.550;13.148;2023-08-24T12:01:42;27.60;99.90
6210;DHT22;3138;52.550;13.148;2023-08-24T12:04:09;27.60;99.90
6210;DHT22;3138;52.550;13.148;2023-08-24T12:06:37;27.70;99.90
6210;DHT22;3138;52.550;13.148;2023-08-24T12:09:06;28.20;99.90
6210;DHT22;3138;52.550;13.148;2023-08-24T12:11:35;28.50;99.90
6210;DHT22;3138;52.550;13.148;2023-08-24T12:14:04;28.00;99.90
6210;DHT22;3138;52.550;13.148;2023-08-24T12:16:35;27.80;99.90
6210;DHT22;3138;52.550;13.148;2023-08-24T12:19:06;28.00;99.90
6210;DHT22;3138;52.550;13.148;2023-08-24T12:21:33;28.20;99.90
6210;DHT22;3138;52.550;13.148;2023-08-24T12:24:01;28.50;99.90
6210;DHT22;3138;52.550;13.148;2023-08-24T12:26:31;28.20;99.90
6210;DHT22;3138;52.550;13.148;2023-08-24T12:29:00;27.90;99.90
6210;DHT22;3138;52.550;13.148;2023-08-24T12:31:29;27.90;99.90
6210;DHT22;3138;52.550;13.148;2023-08-24T12:34:01;27.90;99.90
6210;DHT22;3138;52.550;13.148;2023-08-24T12:36:29;28.20;99.90
6210;DHT22;3138;52.550;13.148;2023-08-24T12:38:55;28.20;99.90
6210;DHT22;3138;52.550;13.148;2023-08-24T12:41:22;28.10;99.90
6210;DHT22;3138;52.550;13.148;2023-08-24T12:43:50;28.20;99.90
6210;DHT22;3138;52.550;13.148;2023-08-24T12:46:17;28.00;99.90
6210;DHT22;3138;52.550;13.148;2023-08-24T12:48:45;27.90;99.90
6210;DHT22;3138;52.550;13.148;2023-08-24T12:51:12;27.90;99.90
6210;DHT22;3138;52.550;13.148;2023-08-24T12:53:39;28.20;99.90
6210;DHT22;3138;52.550;13.148;2023-08-24T12:56:06;28.20;99.90
6210;DHT22;3138;52.550;13.148;2023-08-24T12:58:32;28.30;99.90
6210;DHT22;3138;52.550;13.148;2023-08-24T13:00:59;28.30;99.90
6210;DHT22;3138;52.550;13.148;2023-08-24T13:03:26;28.50;99.90
6210;DHT22;3138;52.550;13.148;2023-08-24T13:05:55;28.40;99.90
6210;DHT22;3138;52.550;13.148;2023-08-24T13:08:21;28.60;99.90
6210;DHT22;3138;52.550;13.148;2023-08-24T13:10:49;28.40;99.90
6210;DHT22;3138;52.550;13.148;2023-08-24T13:13:16;28.40;99.90
6210;DHT22;3138;52.550;13.148;2023-08-24T13:15:43;28.30;99.90
6210;DHT22;3138;52.550;13.148;2023-08-24T13:18:10;28.60;99.90
6210;DHT22;3138;52.550;13.148;2023-08-24T13:20:37;28.50;99.90
6210;DHT22;3138;52.550;13.148;2023-08-24T13:23:05;28.90;99.90
6210;DHT22;3138;52.550;13.148;2023-08-24T13:25:31;29.10;99.90
6210;DHT22;3138;52.550;13.148;2023-08-24T13:27:57;29.30;99.90
6210;DHT22;3138;52.550;13.148;2023-08-24T13:30:24;29.10;99.90
6210;DHT22;3138;52.550;13.148;2023-08-24T13:32:52;28.90;99.90
6210;DHT22;3138;52.550;13.148;2023-08-24T13:35:19;29.20;99.90
6210;DHT22;3138;52.550;13.148;2023-08-24T13:37:47;29.50;99.90
6210;DHT22;3138;52.550;13.148;2023-08-24T13:40:15;29.30;99.90
6210;DHT22;3138;52.550;13.148;2023-08-24T13:42:42;29.20;99.90
6210;DHT22;3138;52.550;13.148;2023-08-24T13:45:09;29.10;99.90
6210;DHT22;3138;52.550;13.148;2023-08-24T13:47:36;29.10;99.90
6210;DHT22;3138;52.550;13.148;2023-08-24T13:50:04;28.80;99.90
6210;DHT22;3138;52.550;13.148;2023-08-24T13:52:30;29.00;99.90
6210;DHT22;3138;52.550;13.148;2023-08-24T13:54:57;28.70;99.90
6210;DHT22;3138;52.550;13.148;2023-08-24T13:57:26;28.70;99.90
6210;DHT22;3138;52.550;13.148;2023-08-24T13:59:52;28.70;99.90
6210;DHT22;3138;52.550;13.148;2023-08-24T14:02:19;28.90;99.90
6210;DHT22;3138;52.550;13.148;2023-08-24T14:04:46;28.70;99.90
6210;DHT22;3138;52.550;13.148;2023-08-24T14:07:13;28.50;99.90
6210;DHT22;3138;52.550;13.148;2023-08-24T14:09:40;28.20;99.90
6210;DHT22;3138;52.550;13.148;2023-08-24T14:12:07;28.20;99.90
6210;DHT22;3138;52.550;13.148;2023-08-24T14:14:35;28.10;99.90
6210;DHT22;3138;52.550;13.148;2023-08-24T14:17:02;28.00;99.90
6210;DHT22;3138;52.550;13.148;2023-08-24T14:19:29;28.30;99.90
6210;DHT22;3138;52.550;13.148;2023-08-24T14:21:55;28.70;99.90
6210;DHT22;3138;52.550;13.148;2023-08-24T14:24:23;28.90;99.90
6210;DHT22;3138;52.550;13.148;2023-08-24T14:26:50;28.90;99.90
6210;DHT22;3138;52.550;13.148;2023-08-24T14:29:17;29.00;99.90
6210;DHT22;3138;52.550;13.148;2023-08-24T14:31:45;29.00;99.90
6210;DHT22;3138;52.550;13.148;2023-08-24T14:34:12;29.00;99.90
6210;DHT22;3138;52.550;13.148;2023-08-24T14:36:39;28.80;99.90
6210;DHT22;3138;52.550;13.148;2023-08-24T14:39:05;28.80;99.90
6210;DHT22;3138;52.550;13.148;2023-08-24T14:41:32;28.60;99.90
6210;DHT22;3138;52.550;13.148;2023-08-24T14:43:59;28.30;99.90
6210;DHT22;3138;52.550;13.148;2023-08-24T14:46:26;28.30;99.90
6210;DHT22;3138;52.550;13.148;2023-08-24T14:48:54;28.40;99.90
6210;DHT22;3138;52.550;13.148;2023-08-24T14:51:21;28.40;99.90
6210;DHT22;3138;52.550;13.148;2023-08-24T14:53:48;28.40;99.90
6210;DHT22;3138;52.550;13.148;2023-08-24T14:56:14;28.30;99.90
6210;DHT22;3138;52.550;13.148;2023-08-24T14:58:41;28.20;99.90
6210;DHT22;3138;52.550;13.148;2023-08-24T15:01:08;28.30;99.90
6210;DHT22;3138;52.550;13.148;2023-08-24T15:03:36;28.50;99.90
6210;DHT22;3138;52.550;13.148;2023-08-24T15:06:05;28.50;99.90
6210;DHT22;3138;52.550;13.148;2023-08-24T15:08:34;28.60;99.90
6210;DHT22;3138;52.550;13.148;2023-08-24T15:11:02;28.60;99.90
6210;DHT22;3138;52.550;13.148;2023-08-24T15:13:29;28.40;99.90
6210;DHT22;3138;52.550;13.148;2023-08-24T15:15:57;28.40;99.90
6210;DHT22;3138;52.550;13.148;2023-08-24T15:18:25;28.30;99.90
6210;DHT22;3138;52.550;13.148;2023-08-24T15:20:52;28.30;99.90
6210;DHT22;3138;52.550;13.148;2023-08-24T15:23:24;28.20;99.90
6210;DHT22;3138;52.550;13.148;2023-08-24T15:25:53;28.20;99.90
6210;DHT22;3138;52.550;13.148;2023-08-24T15:28:20;28.30;99.90
6210;DHT22;3138;52.550;13.148;2023-08-24T15:30:47;28.10;99.90
6210;DHT22;3138;52.550;13.148;2023-08-24T15:33:14;27.90;99.90
6210;DHT22;3138;52.550;13.148;2023-08-24T15:35:41;28.10;99.90
6210;DHT22;3138;52.550;13.148;2023-08-24T15:38:08;28.10;99.90
6210;DHT22;3138;52.550;13.148;2023-08-24T15:40:37;28.10;99.90
6210;DHT22;3138;52.550;13.148;2023-08-24T15:43:04;27.90;99.90
6210;DHT22;3138;52.550;13.148;2023-08-24T15:45:32;27.80;99.90
6210;DHT22;3138;52.550;13.148;2023-08-24T15:48:00;27.80;99.90